createdAt,value
2017-09-16T00:01:46.572Z,95.98
2017-09-16T00:04:14.307Z,96.08
2017-09-16T00:06:41.989Z,96.14
2017-09-16T00:09:09.742Z,96.15
2017-09-16T00:11:37.419Z,96.05
2017-09-16T00:14:05.161Z,95.75
2017-09-16T00:16:32.847Z,95.73
2017-09-16T00:19:00.627Z,95.79
2017-09-16T00:21:28.310Z,95.90
2017-09-16T00:23:55.970Z,95.98
2017-09-16T00:26:23.675Z,95.93
2017-09-16T00:28:51.404Z,96.03
2017-09-16T00:31:19.099Z,96.13
2017-09-16T00:33:46.837Z,96.19
2017-09-16T00:36:14.574Z,96.25
2017-09-16T00:38:42.293Z,96.51
2017-09-16T00:41:09.978Z,96.71
2017-09-16T00:43:37.707Z,96.79
2017-09-16T00:46:05.406Z,96.73
2017-09-16T00:48:33.123Z,96.63
2017-09-16T00:51:00.859Z,96.62
2017-09-16T00:53:28.639Z,96.59
2017-09-16T00:55:56.325Z,96.43
2017-09-16T00:58:24.075Z,96.45
2017-09-16T01:00:51.750Z,96.53
2017-09-16T01:03:19.485Z,96.66
2017-09-16T01:05:47.220Z,96.75
2017-09-16T01:08:14.920Z,96.82
2017-09-16T01:10:42.672Z,96.79
2017-09-16T01:13:10.365Z,96.78
2017-09-16T01:15:38.093Z,96.74
2017-09-16T01:18:05.779Z,96.69
2017-09-16T01:20:33.539Z,96.65
2017-09-16T01:23:01.245Z,96.63
2017-09-16T01:25:28.983Z,96.71
2017-09-16T01:27:56.725Z,96.77
2017-09-16T01:30:24.479Z,96.84
2017-09-16T01:32:52.199Z,96.89
2017-09-16T01:35:19.996Z,96.94
2017-09-16T01:37:47.685Z,96.95
2017-09-16T01:40:15.429Z,97.00
2017-09-16T01:42:43.124Z,97.03
2017-09-16T01:45:10.852Z,96.89
2017-09-16T01:47:38.524Z,96.80
2017-09-16T01:50:06.255Z,96.83
2017-09-16T01:52:33.949Z,96.83
2017-09-16T01:55:01.673Z,96.83
2017-09-16T01:57:29.355Z,96.85
2017-09-16T01:59:57.085Z,96.87
2017-09-16T02:02:24.783Z,96.92
2017-09-16T02:04:52.513Z,96.87
2017-09-16T02:07:20.184Z,96.79
2017-09-16T02:09:47.916Z,96.79
2017-09-16T02:12:15.621Z,96.81
2017-09-16T02:14:43.370Z,96.77
2017-09-16T02:17:11.066Z,96.74
2017-09-16T02:19:38.798Z,96.78
2017-09-16T02:22:06.483Z,96.85
2017-09-16T02:24:34.213Z,96.87
2017-09-16T02:27:01.906Z,96.88
2017-09-16T02:29:29.638Z,96.84
2017-09-16T02:31:57.330Z,96.88
2017-09-16T02:34:25.064Z,96.91
2017-09-16T02:36:52.787Z,96.93
2017-09-16T02:39:20.534Z,96.94
2017-09-16T02:41:48.227Z,96.95
2017-09-16T02:44:15.929Z,96.93
2017-09-16T02:46:43.675Z,96.88
2017-09-16T02:49:11.383Z,96.85
2017-09-16T02:51:39.156Z,96.84
2017-09-16T02:54:06.838Z,96.90
2017-09-16T02:56:34.597Z,96.95
2017-09-16T02:59:02.329Z,96.96
2017-09-16T03:01:30.046Z,96.99
2017-09-16T03:03:57.727Z,96.95
2017-09-16T03:06:25.479Z,96.93
2017-09-16T03:08:53.165Z,96.88
2017-09-16T03:11:20.906Z,96.83
2017-09-16T03:13:48.606Z,96.84
2017-09-16T03:16:16.385Z,96.85
2017-09-16T03:18:44.113Z,96.87
2017-09-16T03:21:11.874Z,96.89
2017-09-16T03:23:39.570Z,96.92
2017-09-16T03:26:10.586Z,96.90
2017-09-16T03:28:38.277Z,96.85
2017-09-16T03:31:06.014Z,96.96
2017-09-16T03:33:33.708Z,97.10
2017-09-16T03:36:01.505Z,97.10
2017-09-16T03:38:29.198Z,97.07
2017-09-16T03:40:57.042Z,97.06
2017-09-16T03:43:24.754Z,97.14
2017-09-16T03:45:52.500Z,97.21
2017-09-16T03:48:20.195Z,97.26
2017-09-16T03:50:47.919Z,97.28
2017-09-16T03:53:15.595Z,97.24
2017-09-16T03:55:43.329Z,97.27
2017-09-16T03:58:11.000Z,97.28
2017-09-16T04:00:38.713Z,97.28
2017-09-16T04:03:06.423Z,97.25
2017-09-16T04:05:34.154Z,97.25
2017-09-16T04:08:01.863Z,97.27
2017-09-16T04:10:29.574Z,97.32
2017-09-16T04:12:57.276Z,97.32
2017-09-16T04:15:25.041Z,97.29
2017-09-16T04:17:52.746Z,97.22
2017-09-16T04:20:20.481Z,97.21
2017-09-16T04:22:48.174Z,97.26
2017-09-16T04:25:15.941Z,97.31
2017-09-16T04:27:43.643Z,97.41
2017-09-16T04:30:11.341Z,97.48
2017-09-16T04:32:39.097Z,97.54
2017-09-16T04:35:06.832Z,97.58
2017-09-16T04:37:34.593Z,97.59
2017-09-16T04:40:02.312Z,97.61
2017-09-16T04:42:30.063Z,97.59
2017-09-16T04:44:57.755Z,97.61
2017-09-16T04:47:25.523Z,97.65
2017-09-16T04:49:53.261Z,97.70
2017-09-16T04:52:21.022Z,97.73
2017-09-16T04:54:48.721Z,97.78
2017-09-16T04:57:16.476Z,97.81
2017-09-16T04:59:44.166Z,97.80
2017-09-16T05:02:11.913Z,97.76
2017-09-16T05:04:39.594Z,97.71
2017-09-16T05:07:07.355Z,97.64
2017-09-16T05:09:35.069Z,97.58
2017-09-16T05:12:02.825Z,97.53
2017-09-16T05:14:30.552Z,97.46
2017-09-16T05:16:58.312Z,97.36
2017-09-16T05:19:25.994Z,97.34
2017-09-16T05:21:53.795Z,97.38
2017-09-16T05:24:21.500Z,97.39
2017-09-16T05:26:49.248Z,97.40
2017-09-16T05:29:16.973Z,97.41
2017-09-16T05:31:44.733Z,97.42
2017-09-16T05:34:12.443Z,97.45
2017-09-16T05:36:40.241Z,97.43
2017-09-16T05:39:07.954Z,97.39
2017-09-16T05:41:35.679Z,97.29
2017-09-16T05:44:03.384Z,97.17
2017-09-16T05:46:31.142Z,97.10
2017-09-16T05:48:58.837Z,97.00
2017-09-16T05:51:26.504Z,96.96
2017-09-16T05:53:54.153Z,96.96
2017-09-16T05:56:21.900Z,96.78
2017-09-16T05:58:49.637Z,96.45
2017-09-16T06:01:17.404Z,95.98
2017-09-16T06:03:45.125Z,95.28
2017-09-16T06:06:12.913Z,94.64
2017-09-16T06:08:40.607Z,94.18
2017-09-16T06:11:08.331Z,93.93
2017-09-16T06:13:36.085Z,93.92
2017-09-16T06:16:03.809Z,94.17
2017-09-16T06:18:31.563Z,94.46
2017-09-16T06:20:59.259Z,94.69
2017-09-16T06:23:27.018Z,94.87
2017-09-16T06:25:54.736Z,95.02
2017-09-16T06:28:22.479Z,95.13
2017-09-16T06:30:50.182Z,95.22
2017-09-16T06:33:17.934Z,95.01
2017-09-16T06:35:45.681Z,94.87
2017-09-16T06:38:13.477Z,94.53
2017-09-16T06:40:41.236Z,94.42
2017-09-16T06:43:08.996Z,94.36
2017-09-16T06:45:36.697Z,93.98
2017-09-16T06:48:04.451Z,93.62
2017-09-16T06:50:32.176Z,93.52
2017-09-16T06:52:59.949Z,93.30
2017-09-16T06:55:27.689Z,93.16
2017-09-16T06:57:55.447Z,93.09
2017-09-16T07:00:23.148Z,93.05
2017-09-16T07:02:50.892Z,92.42
2017-09-16T07:05:18.607Z,92.09
2017-09-16T07:07:46.362Z,91.68
2017-09-16T07:10:14.077Z,91.54
2017-09-16T07:12:41.742Z,90.85
2017-09-16T07:15:09.460Z,90.78
2017-09-16T07:17:37.243Z,90.69
2017-09-16T07:20:04.964Z,90.68
2017-09-16T07:22:32.737Z,90.74
2017-09-16T07:25:00.480Z,90.53
2017-09-16T07:27:28.250Z,89.63
2017-09-16T07:29:55.948Z,88.86
2017-09-16T07:32:23.713Z,89.42
2017-09-16T07:34:51.488Z,89.29
2017-09-16T07:37:19.220Z,89.27
2017-09-16T07:39:46.939Z,88.46
2017-09-16T07:42:14.695Z,87.90
2017-09-16T07:44:42.405Z,87.90
2017-09-16T07:47:10.200Z,87.90
2017-09-16T07:49:37.897Z,87.77
2017-09-16T07:52:05.628Z,87.08
2017-09-16T07:54:33.360Z,86.26
2017-09-16T07:57:01.088Z,84.88
2017-09-16T07:59:28.873Z,86.99
2017-09-16T08:01:56.593Z,86.74
2017-09-16T08:04:24.248Z,86.47
2017-09-16T08:06:51.946Z,84.00
2017-09-16T08:09:19.726Z,85.70
2017-09-16T08:11:47.433Z,85.09
2017-09-16T08:14:15.216Z,84.94
2017-09-16T08:16:42.907Z,84.08
2017-09-16T08:19:10.673Z,83.85
2017-09-16T08:21:38.400Z,83.75
2017-09-16T08:24:06.154Z,82.62
2017-09-16T08:26:33.870Z,82.81
2017-09-16T08:29:01.630Z,83.33
2017-09-16T08:31:29.577Z,83.23
2017-09-16T08:33:57.303Z,81.96
2017-09-16T08:36:25.050Z,81.68
2017-09-16T08:38:52.838Z,81.24
2017-09-16T08:41:20.541Z,80.38
2017-09-16T08:43:48.337Z,79.24
2017-09-16T08:46:16.035Z,81.29
2017-09-16T08:48:43.771Z,79.64
2017-09-16T08:51:11.489Z,79.41
2017-09-16T08:53:39.233Z,78.23
2017-09-16T08:56:06.946Z,78.97
2017-09-16T08:58:34.687Z,78.04
2017-09-16T09:01:02.410Z,77.11
2017-09-16T09:03:30.198Z,78.24
2017-09-16T09:05:57.882Z,78.25
2017-09-16T09:08:25.670Z,77.87
2017-09-16T09:10:53.357Z,76.71
2017-09-16T09:13:21.266Z,76.41
2017-09-16T09:15:49.012Z,76.80
2017-09-16T09:18:16.817Z,78.24
2017-09-16T09:20:44.502Z,78.71
2017-09-16T09:23:12.350Z,80.26
2017-09-16T09:25:40.062Z,80.16
2017-09-16T09:28:07.807Z,81.58
2017-09-16T09:30:35.510Z,81.27
2017-09-16T09:33:03.201Z,82.21
2017-09-16T09:35:31.006Z,82.06
2017-09-16T09:37:59.162Z,79.97
2017-09-16T09:40:26.960Z,80.96
2017-09-16T09:42:54.695Z,80.95
2017-09-16T09:45:22.452Z,80.21
2017-09-16T09:47:50.146Z,79.81
2017-09-16T09:50:17.894Z,80.40
2017-09-16T09:52:45.608Z,81.08
2017-09-16T09:55:13.388Z,79.72
2017-09-16T09:57:41.104Z,78.42
2017-09-16T10:00:08.845Z,79.67
2017-09-16T10:02:36.575Z,79.64
2017-09-16T10:05:04.339Z,78.55
2017-09-16T10:07:32.080Z,77.46
2017-09-16T10:09:59.835Z,77.92
2017-09-16T10:12:27.512Z,76.98
2017-09-16T10:14:55.282Z,77.50
2017-09-16T10:17:22.975Z,76.26
2017-09-16T10:19:50.759Z,73.89
2017-09-16T10:22:18.453Z,73.32
2017-09-16T10:24:46.233Z,69.52
2017-09-16T10:27:13.972Z,70.64
2017-09-16T10:29:41.719Z,72.30
2017-09-16T10:32:09.424Z,73.30
2017-09-16T10:34:37.169Z,73.63
2017-09-16T10:37:04.915Z,74.50
2017-09-16T10:39:32.706Z,73.92
2017-09-16T10:42:00.400Z,73.15
2017-09-16T10:44:28.174Z,71.55
2017-09-16T10:46:56.139Z,71.93
2017-09-16T10:49:23.878Z,73.47
2017-09-16T10:51:51.572Z,73.15
2017-09-16T10:54:19.310Z,73.63
2017-09-16T10:56:47.027Z,73.66
2017-09-16T10:59:14.836Z,72.27
2017-09-16T11:01:42.542Z,71.96
2017-09-16T11:04:10.294Z,70.96
2017-09-16T11:06:37.987Z,68.83
2017-09-16T11:09:05.752Z,67.90
2017-09-16T11:11:33.569Z,66.91
2017-09-16T11:14:01.281Z,64.50
2017-09-16T11:16:29.028Z,65.02
2017-09-16T11:18:56.656Z,64.31
2017-09-16T11:21:24.414Z,66.04
2017-09-16T11:23:52.124Z,65.97
2017-09-16T11:26:19.876Z,66.23
2017-09-16T11:28:47.575Z,66.73
2017-09-16T11:31:15.398Z,68.09
2017-09-16T11:33:43.097Z,69.47
2017-09-16T11:36:10.926Z,69.51
2017-09-16T11:38:38.619Z,69.67
2017-09-16T11:41:06.376Z,70.63
2017-09-16T11:43:34.088Z,70.02
2017-09-16T11:46:01.904Z,70.83
2017-09-16T11:48:29.639Z,68.47
2017-09-16T11:50:57.424Z,66.00
2017-09-16T11:53:25.133Z,66.80
2017-09-16T11:55:52.895Z,65.65
2017-09-16T11:58:20.521Z,63.75
2017-09-16T12:00:48.274Z,61.76
2017-09-16T12:03:15.979Z,62.58
2017-09-16T12:05:43.640Z,61.80
2017-09-16T12:08:11.384Z,61.41
2017-09-16T12:10:39.159Z,62.55
2017-09-16T12:13:06.916Z,61.46
2017-09-16T12:15:34.689Z,60.44
2017-09-16T12:18:02.407Z,60.50
2017-09-16T12:20:30.174Z,60.45
2017-09-16T12:22:57.902Z,64.03
2017-09-16T12:25:25.651Z,63.69
2017-09-16T12:27:53.343Z,62.42
2017-09-16T12:30:21.101Z,62.30
2017-09-16T12:32:48.791Z,63.50
2017-09-16T12:35:16.582Z,62.71
2017-09-16T12:37:44.268Z,62.41
2017-09-16T12:40:12.009Z,63.73
2017-09-16T12:42:39.715Z,62.26
2017-09-16T12:45:07.477Z,61.10
2017-09-16T12:47:35.175Z,62.78
2017-09-16T12:50:02.964Z,63.87
2017-09-16T12:52:30.707Z,64.18
2017-09-16T12:54:58.439Z,65.28
2017-09-16T12:57:26.173Z,65.78
2017-09-16T12:59:53.895Z,64.55
2017-09-16T13:02:21.661Z,64.61
2017-09-16T13:04:49.350Z,65.40
2017-09-16T13:07:17.108Z,64.31
2017-09-16T13:09:44.855Z,65.76
2017-09-16T13:12:12.640Z,68.05
2017-09-16T13:14:40.341Z,68.75
2017-09-16T13:17:08.109Z,68.50
2017-09-16T13:19:35.809Z,69.57
2017-09-16T13:22:03.561Z,70.31
2017-09-16T13:24:31.316Z,70.74
2017-09-16T13:26:59.064Z,69.09
2017-09-16T13:29:26.766Z,69.11
2017-09-16T13:31:54.558Z,70.05
2017-09-16T13:34:22.306Z,71.50
2017-09-16T13:36:50.123Z,72.52
2017-09-16T13:39:17.832Z,72.72
2017-09-16T13:41:45.610Z,72.40
2017-09-16T13:44:13.316Z,71.81
2017-09-16T13:46:41.094Z,71.46
2017-09-16T13:49:08.787Z,69.96
2017-09-16T13:51:36.556Z,67.34
2017-09-16T13:54:04.286Z,65.34
2017-09-16T13:56:32.038Z,64.68
2017-09-16T13:58:59.740Z,64.91
2017-09-16T14:01:27.490Z,64.79
2017-09-16T14:03:55.195Z,64.94
2017-09-16T14:06:22.960Z,66.51
2017-09-16T14:08:50.982Z,67.88
2017-09-16T14:11:18.752Z,64.82
2017-09-16T14:13:46.493Z,65.08
2017-09-16T14:16:14.244Z,65.42
2017-09-16T14:18:41.963Z,66.70
2017-09-16T14:21:09.777Z,65.58
2017-09-16T14:23:37.486Z,65.48
2017-09-16T14:26:05.280Z,66.87
2017-09-16T14:28:32.998Z,65.72
2017-09-16T14:31:00.755Z,65.08
2017-09-16T14:33:28.532Z,65.35
2017-09-16T14:35:56.276Z,64.90
2017-09-16T14:38:24.055Z,64.62
2017-09-16T14:40:51.663Z,64.42
2017-09-16T14:43:19.399Z,63.80
2017-09-16T14:45:47.112Z,61.32
2017-09-16T14:48:14.875Z,63.78
2017-09-16T14:50:42.603Z,64.27
2017-09-16T14:53:10.353Z,64.03
2017-09-16T14:55:38.050Z,64.23
2017-09-16T14:58:05.823Z,62.51
2017-09-16T15:00:33.526Z,59.76
2017-09-16T15:03:01.280Z,60.92
2017-09-16T15:05:29.013Z,61.42
2017-09-16T15:07:56.808Z,62.47
2017-09-16T15:10:24.534Z,63.84
2017-09-16T15:12:52.295Z,66.84
2017-09-16T15:15:20.011Z,67.72
2017-09-16T15:17:47.786Z,68.22
2017-09-16T15:20:15.494Z,68.67
2017-09-16T15:22:43.271Z,69.24
2017-09-16T15:25:10.998Z,71.12
2017-09-16T15:27:38.757Z,70.83
2017-09-16T15:30:06.485Z,70.80
2017-09-16T15:32:34.236Z,71.30
2017-09-16T15:35:02.016Z,70.41
2017-09-16T15:37:29.829Z,71.25
2017-09-16T15:39:57.528Z,70.56
2017-09-16T15:42:25.296Z,71.14
2017-09-16T15:44:53.009Z,70.88
2017-09-16T15:47:20.791Z,71.16
2017-09-16T15:49:48.492Z,70.64
2017-09-16T15:52:16.250Z,69.65
2017-09-16T15:54:43.966Z,70.06
2017-09-16T15:57:11.763Z,70.93
2017-09-16T15:59:39.505Z,72.26
2017-09-16T16:02:07.318Z,73.49
2017-09-16T16:04:35.033Z,72.34
2017-09-16T16:07:02.806Z,71.64
2017-09-16T16:09:30.566Z,71.97
2017-09-16T16:11:58.281Z,71.85
2017-09-16T16:14:26.065Z,72.67
2017-09-16T16:16:53.783Z,72.97
2017-09-16T16:19:21.535Z,73.85
2017-09-16T16:21:49.253Z,74.33
2017-09-16T16:24:17.067Z,74.90
2017-09-16T16:26:44.772Z,74.98
2017-09-16T16:29:12.545Z,76.15
2017-09-16T16:31:40.303Z,76.16
2017-09-16T16:34:08.064Z,77.15
2017-09-16T16:36:35.818Z,78.03
2017-09-16T16:39:03.598Z,77.43
2017-09-16T16:41:31.207Z,78.21
2017-09-16T16:43:58.997Z,77.53
2017-09-16T16:46:26.705Z,79.00
2017-09-16T16:48:54.442Z,79.27
2017-09-16T16:51:22.152Z,79.73
2017-09-16T16:53:49.934Z,80.01
2017-09-16T16:56:17.644Z,80.32
2017-09-16T16:58:45.419Z,80.87
2017-09-16T17:01:13.036Z,81.04
2017-09-16T17:03:40.695Z,82.75
2017-09-16T17:06:08.413Z,83.86
2017-09-16T17:08:36.254Z,84.66
2017-09-16T17:11:04.924Z,85.44
2017-09-16T17:13:32.745Z,85.59
2017-09-16T17:16:00.479Z,86.05
2017-09-16T17:18:28.264Z,86.33
2017-09-16T17:20:55.991Z,86.58
2017-09-16T17:23:23.767Z,86.87
2017-09-16T17:25:51.477Z,87.70
2017-09-16T17:28:19.225Z,88.15
2017-09-16T17:30:46.923Z,88.45
2017-09-16T17:33:14.730Z,89.10
2017-09-16T17:35:42.631Z,89.36
2017-09-16T17:38:10.447Z,89.46
2017-09-16T17:40:38.172Z,89.15
2017-09-16T17:43:06.167Z,89.47
2017-09-16T17:45:33.913Z,89.60
2017-09-16T17:48:01.703Z,89.75
2017-09-16T17:50:29.397Z,89.99
2017-09-16T17:52:57.173Z,90.23
2017-09-16T17:55:24.922Z,90.47
2017-09-16T17:57:52.649Z,90.66
2017-09-16T18:00:20.446Z,90.66
2017-09-16T18:02:48.150Z,90.71
2017-09-16T18:05:15.895Z,90.71
2017-09-16T18:07:43.597Z,90.77
2017-09-16T18:10:11.355Z,90.78
2017-09-16T18:12:39.048Z,90.85
2017-09-16T18:15:06.820Z,90.99
2017-09-16T18:17:34.535Z,91.13
2017-09-16T18:20:02.297Z,91.26
2017-09-16T18:22:30.004Z,91.16
2017-09-16T18:24:57.793Z,91.36
2017-09-16T18:27:25.496Z,91.96
2017-09-16T18:29:53.274Z,92.24
2017-09-16T18:32:20.993Z,92.82
2017-09-16T18:34:48.741Z,93.04
2017-09-16T18:37:16.481Z,93.08
2017-09-16T18:39:44.232Z,93.05
2017-09-16T18:42:11.962Z,92.99
2017-09-16T18:44:39.727Z,92.92
2017-09-16T18:47:07.463Z,93.10
2017-09-16T18:49:35.199Z,93.17
2017-09-16T18:52:02.907Z,93.24
2017-09-16T18:54:30.573Z,93.25
2017-09-16T18:56:58.241Z,93.30
2017-09-16T18:59:26.046Z,93.39
2017-09-16T19:01:53.704Z,93.43
2017-09-16T19:04:21.474Z,93.36
2017-09-16T19:06:49.159Z,93.42
2017-09-16T19:09:16.942Z,93.41
2017-09-16T19:11:44.636Z,93.38
2017-09-16T19:14:12.407Z,93.33
2017-09-16T19:16:40.100Z,93.29
2017-09-16T19:19:07.902Z,93.24
2017-09-16T19:21:35.629Z,93.25
2017-09-16T19:24:03.413Z,93.26
2017-09-16T19:26:31.133Z,93.35
2017-09-16T19:28:58.898Z,93.48
2017-09-16T19:31:26.614Z,93.57
2017-09-16T19:33:54.367Z,93.74
2017-09-16T19:36:22.112Z,93.85
2017-09-16T19:38:49.809Z,93.93
2017-09-16T19:41:17.572Z,93.97
2017-09-16T19:43:45.205Z,93.90
2017-09-16T19:46:12.948Z,93.85
2017-09-16T19:48:40.687Z,93.81
2017-09-16T19:51:09.226Z,93.78
2017-09-16T19:53:36.939Z,93.74
2017-09-16T19:56:04.646Z,93.71
2017-09-16T19:58:32.395Z,93.73
2017-09-16T20:01:00.185Z,93.75
2017-09-16T20:03:27.905Z,93.76
2017-09-16T20:05:55.659Z,93.73
2017-09-16T20:08:23.417Z,93.68
2017-09-16T20:10:51.163Z,93.70
2017-09-16T20:13:18.878Z,93.69
2017-09-16T20:15:47.537Z,93.70
2017-09-16T20:18:15.269Z,93.73
2017-09-16T20:20:43.029Z,93.79
2017-09-16T20:23:10.737Z,93.85
2017-09-16T20:25:38.499Z,93.90
2017-09-16T20:28:06.184Z,93.95
2017-09-16T20:30:33.945Z,93.98
2017-09-16T20:33:01.668Z,94.02
2017-09-16T20:35:29.500Z,94.11
2017-09-16T20:37:57.226Z,94.20
2017-09-16T20:40:24.956Z,94.36
2017-09-16T20:42:52.713Z,94.56
2017-09-16T20:45:20.375Z,94.68
2017-09-16T20:47:48.070Z,94.71
2017-09-16T20:50:15.814Z,94.75
2017-09-16T20:52:43.516Z,94.72
2017-09-16T20:55:11.293Z,94.70
2017-09-16T20:57:38.985Z,94.75
2017-09-16T21:00:06.762Z,94.64
2017-09-16T21:02:34.504Z,94.61
2017-09-16T21:05:02.256Z,94.64
2017-09-16T21:07:29.959Z,94.68
2017-09-16T21:09:57.702Z,94.64
2017-09-16T21:12:25.462Z,94.69
2017-09-16T21:14:53.225Z,94.70
2017-09-16T21:17:20.909Z,94.63
2017-09-16T21:19:48.614Z,94.46
2017-09-16T21:22:16.355Z,94.50
2017-09-16T21:24:44.071Z,94.55
2017-09-16T21:27:11.711Z,94.85
2017-09-16T21:29:39.406Z,95.05
2017-09-16T21:32:07.151Z,95.13
2017-09-16T21:34:34.886Z,94.97
2017-09-16T21:37:02.679Z,94.92
2017-09-16T21:39:30.278Z,94.70
2017-09-16T21:41:58.056Z,94.29
2017-09-16T21:44:25.655Z,93.98
2017-09-16T21:46:53.370Z,93.94
2017-09-16T21:49:21.055Z,94.00
2017-09-16T21:51:48.810Z,94.19
2017-09-16T21:54:16.521Z,94.55
2017-09-16T21:56:44.267Z,94.69
2017-09-16T21:59:11.945Z,94.87
2017-09-16T22:01:39.661Z,94.87
2017-09-16T22:04:07.334Z,94.64
2017-09-16T22:06:35.078Z,94.33
2017-09-16T22:09:02.791Z,94.07
2017-09-16T22:11:30.540Z,93.94
2017-09-16T22:13:58.230Z,94.02
2017-09-16T22:16:25.980Z,94.01
2017-09-16T22:18:53.691Z,94.20
2017-09-16T22:21:21.434Z,94.39
2017-09-16T22:23:49.140Z,94.55
2017-09-16T22:26:16.889Z,94.62
2017-09-16T22:28:44.567Z,94.82
2017-09-16T22:31:12.294Z,95.18
2017-09-16T22:33:39.984Z,95.26
2017-09-16T22:36:07.629Z,95.15
2017-09-16T22:38:35.308Z,94.89
2017-09-16T22:41:03.044Z,94.54
2017-09-16T22:43:30.716Z,94.43
2017-09-16T22:45:58.440Z,94.23
2017-09-16T22:48:26.108Z,94.27
2017-09-16T22:50:53.857Z,94.33
2017-09-16T22:53:21.558Z,94.36
2017-09-16T22:55:49.281Z,94.30
2017-09-16T22:58:16.980Z,94.22
2017-09-16T23:00:44.662Z,94.23
2017-09-16T23:03:12.400Z,94.25
2017-09-16T23:05:40.096Z,94.36
2017-09-16T23:08:07.847Z,94.53
2017-09-16T23:10:35.518Z,94.26
2017-09-16T23:13:03.258Z,94.04
2017-09-16T23:15:30.942Z,94.05
2017-09-16T23:17:58.667Z,94.00
2017-09-16T23:20:26.374Z,93.89
2017-09-16T23:22:54.089Z,93.80
2017-09-16T23:25:21.789Z,93.68
2017-09-16T23:27:49.446Z,94.03
2017-09-16T23:30:17.163Z,94.28
2017-09-16T23:32:44.879Z,94.49
2017-09-16T23:35:12.581Z,94.71
2017-09-16T23:37:40.359Z,94.77
2017-09-16T23:40:08.024Z,94.78
2017-09-16T23:42:35.759Z,94.46
2017-09-16T23:45:03.438Z,94.27
2017-09-16T23:47:31.169Z,94.34
2017-09-16T23:49:58.860Z,94.24
2017-09-16T23:52:26.608Z,94.17
2017-09-16T23:54:54.290Z,94.04
2017-09-16T23:57:22.039Z,94.21
2017-09-16T23:59:49.715Z,94.45
